sensor_id;sensor_type;location;lat;lon;timestamp;temperature;humidity
13794;DHT22;31160;49.500;7.772;2023-02-04T00:00:02;8.10;99.90
13794;DHT22;31160;49.500;7.772;2023-02-04T00:02:31;8.10;99.90
13794;DHT22;31160;49.500;7.772;2023-02-04T00:04:58;8.20;99.90
13794;DHT22;31160;49.500;7.772;2023-02-04T00:07:26;8.20;99.90
13794;DHT22;31160;49.500;7.772;2023-02-04T00:09:52;8.30;99.90
13794;DHT22;31160;49.500;7.772;2023-02-04T00:12:19;8.20;99.90
13794;DHT22;31160;49.500;7.772;2023-02-04T00:14:45;8.20;99.90
13794;DHT22;31160;49.500;7.772;2023-02-04T00:17:12;8.20;99.90
13794;DHT22;31160;49.500;7.772;2023-02-04T00:19:39;8.00;99.90
13794;DHT22;31160;49.500;7.772;2023-02-04T00:22:07;8.10;99.90
13794;DHT22;31160;49.500;7.772;2023-02-04T00:24:35;8.20;99.90
13794;DHT22;31160;49.500;7.772;2023-02-04T00:27:02;8.20;99.90
13794;DHT22;31160;49.500;7.772;2023-02-04T00:29:29;8.20;99.90
13794;DHT22;31160;49.500;7.772;2023-02-04T00:31:56;8.20;99.90
13794;DHT22;31160;49.500;7.772;2023-02-04T00:34:23;8.20;99.90
13794;DHT22;31160;49.500;7.772;2023-02-04T00:36:50;8.20;99.90
13794;DHT22;31160;49.500;7.772;2023-02-04T00:39:16;8.10;99.90
13794;DHT22;31160;49.500;7.772;2023-02-04T00:41:43;8.10;99.90
13794;DHT22;31160;49.500;7.772;2023-02-04T00:44:10;8.00;99.90
13794;DHT22;31160;49.500;7.772;2023-02-04T00:46:37;8.00;99.90
13794;DHT22;31160;49.500;7.772;2023-02-04T00:49:03;8.00;99.90
13794;DHT22;31160;49.500;7.772;2023-02-04T00:51:33;7.90;99.90
13794;DHT22;31160;49.500;7.772;2023-02-04T00:53:59;7.90;99.90
13794;DHT22;31160;49.500;7.772;2023-02-04T00:56:26;7.90;99.90
13794;DHT22;31160;49.500;7.772;2023-02-04T00:58:53;7.90;99.90
13794;DHT22;31160;49.500;7.772;2023-02-04T01:01:19;7.80;99.90
13794;DHT22;31160;49.500;7.772;2023-02-04T01:03:46;7.70;99.90
13794;DHT22;31160;49.500;7.772;2023-02-04T01:06:13;7.70;99.90
13794;DHT22;31160;49.500;7.772;2023-02-04T01:08:40;7.60;99.90
13794;DHT22;31160;49.500;7.772;2023-02-04T01:11:06;7.60;99.90
13794;DHT22;31160;49.500;7.772;2023-02-04T01:13:33;7.60;99.90
13794;DHT22;31160;49.500;7.772;2023-02-04T01:16:00;7.60;99.90
13794;DHT22;31160;49.500;7.772;2023-02-04T01:18:26;7.60;99.90
13794;DHT22;31160;49.500;7.772;2023-02-04T01:20:53;7.50;99.90
13794;DHT22;31160;49.500;7.772;2023-02-04T01:23:20;7.50;99.90
13794;DHT22;31160;49.500;7.772;2023-02-04T01:25:46;7.50;99.90
13794;DHT22;31160;49.500;7.772;2023-02-04T01:28:13;7.50;99.90
13794;DHT22;31160;49.500;7.772;2023-02-04T01:30:40;7.50;99.90
13794;DHT22;31160;49.500;7.772;2023-02-04T01:33:06;7.40;99.90
13794;DHT22;31160;49.500;7.772;2023-02-04T01:35:33;7.30;99.90
13794;DHT22;31160;49.500;7.772;2023-02-04T01:38:00;7.30;99.90
13794;DHT22;31160;49.500;7.772;2023-02-04T01:40:28;7.30;99.90
13794;DHT22;31160;49.500;7.772;2023-02-04T01:42:56;7.30;99.90
13794;DHT22;31160;49.500;7.772;2023-02-04T01:45:23;7.20;99.90
13794;DHT22;31160;49.500;7.772;2023-02-04T01:47:49;7.20;99.90
13794;DHT22;31160;49.500;7.772;2023-02-04T01:50:16;7.20;99.90
13794;DHT22;31160;49.500;7.772;2023-02-04T01:52:44;7.10;99.90
13794;DHT22;31160;49.500;7.772;2023-02-04T01:55:17;7.10;99.90
13794;DHT22;31160;49.500;7.772;2023-02-04T01:57:45;7.10;99.90
13794;DHT22;31160;49.500;7.772;2023-02-04T02:00:16;7.00;99.90
13794;DHT22;31160;49.500;7.772;2023-02-04T02:02:47;7.10;99.90
13794;DHT22;31160;49.500;7.772;2023-02-04T02:05:17;7.10;99.90
13794;DHT22;31160;49.500;7.772;2023-02-04T02:07:44;7.10;99.90
13794;DHT22;31160;49.500;7.772;2023-02-04T02:10:12;7.00;99.90
13794;DHT22;31160;49.500;7.772;2023-02-04T02:12:40;7.00;99.90
13794;DHT22;31160;49.500;7.772;2023-02-04T02:15:08;7.00;99.90
13794;DHT22;31160;49.500;7.772;2023-02-04T02:17:35;7.00;99.90
13794;DHT22;31160;49.500;7.772;2023-02-04T02:20:05;7.00;99.90
13794;DHT22;31160;49.500;7.772;2023-02-04T02:25:12;6.70;99.90
13794;DHT22;31160;49.500;7.772;2023-02-04T02:27:42;6.80;99.90
13794;DHT22;31160;49.500;7.772;2023-02-04T02:30:10;6.80;99.90
13794;DHT22;31160;49.500;7.772;2023-02-04T02:32:37;6.80;99.90
13794;DHT22;31160;49.500;7.772;2023-02-04T02:35:05;6.80;99.90
13794;DHT22;31160;49.500;7.772;2023-02-04T02:37:32;6.70;99.90
13794;DHT22;31160;49.500;7.772;2023-02-04T02:39:59;6.70;99.90
13794;DHT22;31160;49.500;7.772;2023-02-04T02:42:26;6.70;99.90
13794;DHT22;31160;49.500;7.772;2023-02-04T02:44:53;6.90;99.90
13794;DHT22;31160;49.500;7.772;2023-02-04T02:47:22;6.90;99.90
13794;DHT22;31160;49.500;7.772;2023-02-04T02:49:50;6.90;99.90
13794;DHT22;31160;49.500;7.772;2023-02-04T02:52:18;7.00;99.90
13794;DHT22;31160;49.500;7.772;2023-02-04T02:54:45;6.90;99.90
13794;DHT22;31160;49.500;7.772;2023-02-04T02:57:16;6.90;99.90
13794;DHT22;31160;49.500;7.772;2023-02-04T02:59:44;6.90;99.90
13794;DHT22;31160;49.500;7.772;2023-02-04T03:02:14;6.90;99.90
13794;DHT22;31160;49.500;7.772;2023-02-04T03:04:48;6.90;99.90
13794;DHT22;31160;49.500;7.772;2023-02-04T03:07:17;6.90;99.90
13794;DHT22;31160;49.500;7.772;2023-02-04T03:09:45;7.00;99.90
13794;DHT22;31160;49.500;7.772;2023-02-04T03:12:12;6.90;99.90
13794;DHT22;31160;49.500;7.772;2023-02-04T03:14:39;6.90;99.90
13794;DHT22;31160;49.500;7.772;2023-02-04T03:17:08;6.70;99.90
13794;DHT22;31160;49.500;7.772;2023-02-04T03:19:36;6.70;99.90
13794;DHT22;31160;49.500;7.772;2023-02-04T03:22:05;6.60;99.90
13794;DHT22;31160;49.500;7.772;2023-02-04T03:24:34;6.70;99.90
13794;DHT22;31160;49.500;7.772;2023-02-04T03:27:02;6.70;99.90
13794;DHT22;31160;49.500;7.772;2023-02-04T03:29:28;6.60;99.90
13794;DHT22;31160;49.500;7.772;2023-02-04T03:31:56;6.50;99.90
13794;DHT22;31160;49.500;7.772;2023-02-04T03:34:25;6.60;99.90
13794;DHT22;31160;49.500;7.772;2023-02-04T03:36:52;6.60;99.90
13794;DHT22;31160;49.500;7.772;2023-02-04T03:39:18;6.60;99.90
13794;DHT22;31160;49.500;7.772;2023-02-04T03:41:45;6.60;99.90
13794;DHT22;31160;49.500;7.772;2023-02-04T03:44:12;6.60;99.90
13794;DHT22;31160;49.500;7.772;2023-02-04T03:46:38;6.50;99.90
13794;DHT22;31160;49.500;7.772;2023-02-04T03:49:05;6.50;99.90
13794;DHT22;31160;49.500;7.772;2023-02-04T03:51:32;6.60;99.90
13794;DHT22;31160;49.500;7.772;2023-02-04T03:53:58;6.70;99.90
13794;DHT22;31160;49.500;7.772;2023-02-04T03:56:25;6.50;99.90
13794;DHT22;31160;49.500;7.772;2023-02-04T03:58:52;6.50;99.90
13794;DHT22;31160;49.500;7.772;2023-02-04T04:01:19;6.60;99.90
13794;DHT22;31160;49.500;7.772;2023-02-04T04:03:45;6.70;99.90
13794;DHT22;31160;49.500;7.772;2023-02-04T04:06:12;6.70;99.90
13794;DHT22;31160;49.500;7.772;2023-02-04T04:08:39;6.80;99.90
13794;DHT22;31160;49.500;7.772;2023-02-04T04:11:05;6.80;99.90
13794;DHT22;31160;49.500;7.772;2023-02-04T04:13:32;6.80;99.90
13794;DHT22;31160;49.500;7.772;2023-02-04T04:15:59;6.80;99.90
13794;DHT22;31160;49.500;7.772;2023-02-04T04:18:26;6.80;99.90
13794;DHT22;31160;49.500;7.772;2023-02-04T04:20:52;6.80;99.90
13794;DHT22;31160;49.500;7.772;2023-02-04T04:23:19;6.80;99.90
13794;DHT22;31160;49.500;7.772;2023-02-04T04:25:46;6.80;99.90
13794;DHT22;31160;49.500;7.772;2023-02-04T04:28:12;6.80;99.90
13794;DHT22;31160;49.500;7.772;2023-02-04T04:30:39;6.80;99.90
13794;DHT22;31160;49.500;7.772;2023-02-04T04:33:06;6.70;99.90
13794;DHT22;31160;49.500;7.772;2023-02-04T04:35:33;6.80;99.90
13794;DHT22;31160;49.500;7.772;2023-02-04T04:38:01;6.70;99.90
13794;DHT22;31160;49.500;7.772;2023-02-04T04:40:28;6.70;99.90
13794;DHT22;31160;49.500;7.772;2023-02-04T04:42:55;6.70;99.90
13794;DHT22;31160;49.500;7.772;2023-02-04T04:45:21;6.50;99.90
13794;DHT22;31160;49.500;7.772;2023-02-04T04:47:48;6.60;99.90
13794;DHT22;31160;49.500;7.772;2023-02-04T04:50:15;6.60;99.90
13794;DHT22;31160;49.500;7.772;2023-02-04T04:52:42;6.60;99.90
13794;DHT22;31160;49.500;7.772;2023-02-04T04:55:08;6.60;99.90
13794;DHT22;31160;49.500;7.772;2023-02-04T04:57:35;6.70;99.90
13794;DHT22;31160;49.500;7.772;2023-02-04T05:00:03;6.70;99.90
13794;DHT22;31160;49.500;7.772;2023-02-04T05:02:30;6.60;99.90
13794;DHT22;31160;49.500;7.772;2023-02-04T05:04:57;6.70;99.90
13794;DHT22;31160;49.500;7.772;2023-02-04T05:07:23;6.60;99.90
13794;DHT22;31160;49.500;7.772;2023-02-04T05:09:50;6.70;99.90
13794;DHT22;31160;49.500;7.772;2023-02-04T05:12:17;6.70;99.90
13794;DHT22;31160;49.500;7.772;2023-02-04T05:14:43;6.80;99.90
13794;DHT22;31160;49.500;7.772;2023-02-04T05:17:10;6.80;99.90
13794;DHT22;31160;49.500;7.772;2023-02-04T05:19:38;6.80;99.90
13794;DHT22;31160;49.500;7.772;2023-02-04T05:22:04;6.80;99.90
13794;DHT22;31160;49.500;7.772;2023-02-04T05:24:31;6.90;99.90
13794;DHT22;31160;49.500;7.772;2023-02-04T05:26:57;6.90;99.90
13794;DHT22;31160;49.500;7.772;2023-02-04T05:29:24;6.90;99.90
13794;DHT22;31160;49.500;7.772;2023-02-04T05:31:51;6.90;99.90
13794;DHT22;31160;49.500;7.772;2023-02-04T05:34:18;6.90;99.90
13794;DHT22;31160;49.500;7.772;2023-02-04T05:36:44;6.90;99.90
13794;DHT22;31160;49.500;7.772;2023-02-04T05:39:11;6.90;99.90
13794;DHT22;31160;49.500;7.772;2023-02-04T05:41:37;6.90;99.90
13794;DHT22;31160;49.500;7.772;2023-02-04T05:44:05;6.70;99.90
13794;DHT22;31160;49.500;7.772;2023-02-04T05:46:32;6.70;99.90
13794;DHT22;31160;49.500;7.772;2023-02-04T05:48:58;6.70;99.90
13794;DHT22;31160;49.500;7.772;2023-02-04T05:51:25;6.60;99.90
13794;DHT22;31160;49.500;7.772;2023-02-04T05:53:52;6.50;99.90
13794;DHT22;31160;49.500;7.772;2023-02-04T05:56:19;6.60;99.90
13794;DHT22;31160;49.500;7.772;2023-02-04T05:58:45;6.60;99.90
13794;DHT22;31160;49.500;7.772;2023-02-04T06:01:12;6.60;99.90
13794;DHT22;31160;49.500;7.772;2023-02-04T06:03:39;6.50;99.90
13794;DHT22;31160;49.500;7.772;2023-02-04T06:06:06;6.60;99.90
13794;DHT22;31160;49.500;7.772;2023-02-04T06:08:33;6.60;99.90
13794;DHT22;31160;49.500;7.772;2023-02-04T06:10:59;6.50;99.90
13794;DHT22;31160;49.500;7.772;2023-02-04T06:13:26;6.60;99.90
13794;DHT22;31160;49.500;7.772;2023-02-04T06:15:53;6.60;99.90
13794;DHT22;31160;49.500;7.772;2023-02-04T06:18:19;6.70;99.90
13794;DHT22;31160;49.500;7.772;2023-02-04T06:20:46;6.70;99.90
13794;DHT22;31160;49.500;7.772;2023-02-04T06:23:13;6.70;99.90
13794;DHT22;31160;49.500;7.772;2023-02-04T06:25:40;6.80;99.90
13794;DHT22;31160;49.500;7.772;2023-02-04T06:28:06;6.70;99.90
13794;DHT22;31160;49.500;7.772;2023-02-04T06:30:33;6.70;99.90
13794;DHT22;31160;49.500;7.772;2023-02-04T06:33:01;6.80;99.90
13794;DHT22;31160;49.500;7.772;2023-02-04T06:35:27;6.80;99.90
13794;DHT22;31160;49.500;7.772;2023-02-04T06:37:54;6.80;99.90
13794;DHT22;31160;49.500;7.772;2023-02-04T06:40:21;6.90;99.90
13794;DHT22;31160;49.500;7.772;2023-02-04T06:42:48;6.90;99.90
13794;DHT22;31160;49.500;7.772;2023-02-04T06:45:14;6.80;99.90
13794;DHT22;31160;49.500;7.772;2023-02-04T06:47:41;6.80;99.90
13794;DHT22;31160;49.500;7.772;2023-02-04T06:50:08;6.80;99.90
13794;DHT22;31160;49.500;7.772;2023-02-04T06:52:35;6.80;99.90
13794;DHT22;31160;49.500;7.772;2023-02-04T06:55:03;6.90;99.90
13794;DHT22;31160;49.500;7.772;2023-02-04T06:57:29;6.90;99.90
13794;DHT22;31160;49.500;7.772;2023-02-04T06:59:56;6.80;99.90
13794;DHT22;31160;49.500;7.772;2023-02-04T07:02:23;6.80;99.90
13794;DHT22;31160;49.500;7.772;2023-02-04T07:04:50;6.80;99.90
13794;DHT22;31160;49.500;7.772;2023-02-04T07:07:16;6.80;99.90
13794;DHT22;31160;49.500;7.772;2023-02-04T07:09:43;6.80;99.90
13794;DHT22;31160;49.500;7.772;2023-02-04T07:12:10;6.70;99.90
13794;DHT22;31160;49.500;7.772;2023-02-04T07:14:36;6.70;99.90
13794;DHT22;31160;49.500;7.772;2023-02-04T07:17:03;6.70;99.90
13794;DHT22;31160;49.500;7.772;2023-02-04T07:19:30;6.80;99.90
13794;DHT22;31160;49.500;7.772;2023-02-04T07:21:56;6.80;99.90
13794;DHT22;31160;49.500;7.772;2023-02-04T07:24:24;6.80;99.90
13794;DHT22;31160;49.500;7.772;2023-02-04T07:26:51;6.80;99.90
13794;DHT22;31160;49.500;7.772;2023-02-04T07:29:17;6.90;99.90
13794;DHT22;31160;49.500;7.772;2023-02-04T07:31:51;7.00;99.90
13794;DHT22;31160;49.500;7.772;2023-02-04T07:34:18;7.00;99.90
13794;DHT22;31160;49.500;7.772;2023-02-04T07:36:46;7.00;99.90
13794;DHT22;31160;49.500;7.772;2023-02-04T07:39:13;7.00;99.90
13794;DHT22;31160;49.500;7.772;2023-02-04T07:41:40;7.00;99.90
13794;DHT22;31160;49.500;7.772;2023-02-04T07:44:06;7.00;99.90
13794;DHT22;31160;49.500;7.772;2023-02-04T07:46:33;7.00;99.90
13794;DHT22;31160;49.500;7.772;2023-02-04T07:49:00;7.10;99.90
13794;DHT22;31160;49.500;7.772;2023-02-04T07:51:27;7.20;99.90
13794;DHT22;31160;49.500;7.772;2023-02-04T07:53:54;7.20;99.90
13794;DHT22;31160;49.500;7.772;2023-02-04T07:56:21;7.20;99.90
13794;DHT22;31160;49.500;7.772;2023-02-04T07:58:48;7.30;99.90
13794;DHT22;31160;49.500;7.772;2023-02-04T08:01:15;7.30;99.90
13794;DHT22;31160;49.500;7.772;2023-02-04T08:03:42;7.40;99.90
13794;DHT22;31160;49.500;7.772;2023-02-04T08:06:09;7.40;99.90
13794;DHT22;31160;49.500;7.772;2023-02-04T08:08:36;7.30;99.90
13794;DHT22;31160;49.500;7.772;2023-02-04T08:11:03;7.40;99.90
13794;DHT22;31160;49.500;7.772;2023-02-04T08:13:29;7.50;99.90
13794;DHT22;31160;49.500;7.772;2023-02-04T08:15:56;7.60;99.90
13794;DHT22;31160;49.500;7.772;2023-02-04T08:18:23;7.60;99.90
13794;DHT22;31160;49.500;7.772;2023-02-04T08:20:50;7.70;99.90
13794;DHT22;31160;49.500;7.772;2023-02-04T08:23:17;7.70;99.90
13794;DHT22;31160;49.500;7.772;2023-02-04T08:25:44;7.80;99.90
13794;DHT22;31160;49.500;7.772;2023-02-04T08:28:11;7.90;99.90
13794;DHT22;31160;49.500;7.772;2023-02-04T08:30:38;8.00;99.90
13794;DHT22;31160;49.500;7.772;2023-02-04T08:33:04;7.80;99.90
13794;DHT22;31160;49.500;7.772;2023-02-04T08:35:31;7.70;99.90
13794;DHT22;31160;49.500;7.772;2023-02-04T08:37:58;7.70;99.90
13794;DHT22;31160;49.500;7.772;2023-02-04T08:40:24;7.80;99.90
13794;DHT22;31160;49.500;7.772;2023-02-04T08:42:51;8.00;99.90
13794;DHT22;31160;49.500;7.772;2023-02-04T08:45:18;8.20;99.90
13794;DHT22;31160;49.500;7.772;2023-02-04T08:47:45;8.30;99.90
13794;DHT22;31160;49.500;7.772;2023-02-04T08:50:12;8.50;99.90
13794;DHT22;31160;49.500;7.772;2023-02-04T08:52:38;8.60;99.90
13794;DHT22;31160;49.500;7.772;2023-02-04T08:55:05;8.70;99.90
13794;DHT22;31160;49.500;7.772;2023-02-04T08:57:32;8.80;99.90
13794;DHT22;31160;49.500;7.772;2023-02-04T09:00:00;8.90;99.90
13794;DHT22;31160;49.500;7.772;2023-02-04T09:02:27;8.90;99.90
13794;DHT22;31160;49.500;7.772;2023-02-04T09:04:54;9.00;99.90
13794;DHT22;31160;49.500;7.772;2023-02-04T09:07:21;9.10;99.90
13794;DHT22;31160;49.500;7.772;2023-02-04T09:09:47;9.10;99.90
13794;DHT22;31160;49.500;7.772;2023-02-04T09:12:14;9.10;99.90
13794;DHT22;31160;49.500;7.772;2023-02-04T09:14:41;9.00;99.90
13794;DHT22;31160;49.500;7.772;2023-02-04T09:17:08;9.00;99.90
13794;DHT22;31160;49.500;7.772;2023-02-04T09:19:35;8.80;99.90
13794;DHT22;31160;49.500;7.772;2023-02-04T09:22:01;8.80;99.90
13794;DHT22;31160;49.500;7.772;2023-02-04T09:24:28;8.80;99.90
13794;DHT22;31160;49.500;7.772;2023-02-04T09:26:55;8.80;99.90
13794;DHT22;31160;49.500;7.772;2023-02-04T09:29:21;8.70;99.90
13794;DHT22;31160;49.500;7.772;2023-02-04T09:31:48;8.70;99.90
13794;DHT22;31160;49.500;7.772;2023-02-04T09:34:15;8.70;99.90
13794;DHT22;31160;49.500;7.772;2023-02-04T09:36:41;8.90;99.90
13794;DHT22;31160;49.500;7.772;2023-02-04T09:39:08;9.10;99.90
13794;DHT22;31160;49.500;7.772;2023-02-04T09:41:38;9.20;99.90
13794;DHT22;31160;49.500;7.772;2023-02-04T09:44:13;9.30;99.90
13794;DHT22;31160;49.500;7.772;2023-02-04T09:46:47;9.10;99.90
13794;DHT22;31160;49.500;7.772;2023-02-04T09:49:15;9.10;99.90
13794;DHT22;31160;49.500;7.772;2023-02-04T09:51:42;9.10;99.90
13794;DHT22;31160;49.500;7.772;2023-02-04T09:54:16;9.00;99.90
13794;DHT22;31160;49.500;7.772;2023-02-04T09:56:43;9.00;99.90
13794;DHT22;31160;49.500;7.772;2023-02-04T09:59:16;9.00;99.90
13794;DHT22;31160;49.500;7.772;2023-02-04T10:01:44;9.10;99.90
13794;DHT22;31160;49.500;7.772;2023-02-04T10:04:13;9.10;99.90
13794;DHT22;31160;49.500;7.772;2023-02-04T10:06:41;9.20;99.90
13794;DHT22;31160;49.500;7.772;2023-02-04T10:09:10;9.30;99.90
13794;DHT22;31160;49.500;7.772;2023-02-04T10:11:39;9.40;99.90
13794;DHT22;31160;49.500;7.772;2023-02-04T10:14:13;9.50;99.90
13794;DHT22;31160;49.500;7.772;2023-02-04T10:16:41;9.50;99.90
13794;DHT22;31160;49.500;7.772;2023-02-04T10:19:14;9.50;99.90
13794;DHT22;31160;49.500;7.772;2023-02-04T10:21:43;9.60;99.90
13794;DHT22;31160;49.500;7.772;2023-02-04T10:24:15;9.80;99.90
13794;DHT22;31160;49.500;7.772;2023-02-04T10:26:43;9.70;99.90
13794;DHT22;31160;49.500;7.772;2023-02-04T10:29:18;9.90;99.90
13794;DHT22;31160;49.500;7.772;2023-02-04T10:31:48;9.90;99.90
13794;DHT22;31160;49.500;7.772;2023-02-04T10:36:50;10.10;99.90
13794;DHT22;31160;49.500;7.772;2023-02-04T10:39:20;10.00;99.90
13794;DHT22;31160;49.500;7.772;2023-02-04T10:41:50;9.90;99.90
13794;DHT22;31160;49.500;7.772;2023-02-04T10:44:38;10.00;99.90
13794;DHT22;31160;49.500;7.772;2023-02-04T10:47:17;10.10;99.90
13794;DHT22;31160;49.500;7.772;2023-02-04T10:52:19;9.90;99.90
13794;DHT22;31160;49.500;7.772;2023-02-04T10:54:47;9.90;99.90
13794;DHT22;31160;49.500;7.772;2023-02-04T10:57:25;9.70;99.90
13794;DHT22;31160;49.500;7.772;2023-02-04T10:59:55;9.80;99.90
13794;DHT22;31160;49.500;7.772;2023-02-04T11:02:30;9.80;99.90
13794;DHT22;31160;49.500;7.772;2023-02-04T11:04:58;9.90;99.90
13794;DHT22;31160;49.500;7.772;2023-02-04T11:07:24;9.50;99.90
13794;DHT22;31160;49.500;7.772;2023-02-04T11:09:51;9.70;99.90
13794;DHT22;31160;49.500;7.772;2023-02-04T11:12:34;10.00;99.90
13794;DHT22;31160;49.500;7.772;2023-02-04T11:15:01;9.80;99.90
13794;DHT22;31160;49.500;7.772;2023-02-04T11:17:33;9.50;99.90
13794;DHT22;31160;49.500;7.772;2023-02-04T11:20:13;9.80;99.90
13794;DHT22;31160;49.500;7.772;2023-02-04T11:25:35;10.00;99.90
13794;DHT22;31160;49.500;7.772;2023-02-04T11:28:25;10.20;99.90
13794;DHT22;31160;49.500;7.772;2023-02-04T11:31:00;10.30;99.90
13794;DHT22;31160;49.500;7.772;2023-02-04T11:33:40;10.20;99.90
13794;DHT22;31160;49.500;7.772;2023-02-04T11:36:10;9.50;99.90
13794;DHT22;31160;49.500;7.772;2023-02-04T11:38:38;9.20;99.90
13794;DHT22;31160;49.500;7.772;2023-02-04T11:41:17;9.40;99.90
13794;DHT22;31160;49.500;7.772;2023-02-04T11:43:45;9.40;99.90
13794;DHT22;31160;49.500;7.772;2023-02-04T11:46:14;9.10;99.90
13794;DHT22;31160;49.500;7.772;2023-02-04T11:48:42;8.70;99.90
13794;DHT22;31160;49.500;7.772;2023-02-04T11:51:15;8.90;99.90
13794;DHT22;31160;49.500;7.772;2023-02-04T11:53:43;9.20;99.90
13794;DHT22;31160;49.500;7.772;2023-02-04T11:56:17;9.40;99.90
13794;DHT22;31160;49.500;7.772;2023-02-04T11:58:45;9.60;99.90
13794;DHT22;31160;49.500;7.772;2023-02-04T12:01:23;10.00;99.90
13794;DHT22;31160;49.500;7.772;2023-02-04T12:03:59;10.30;99.90
13794;DHT22;31160;49.500;7.772;2023-02-04T12:06:32;10.30;99.90
13794;DHT22;31160;49.500;7.772;2023-02-04T12:11:59;10.40;99.90
13794;DHT22;31160;49.500;7.772;2023-02-04T12:14:37;10.40;99.90
13794;DHT22;31160;49.500;7.772;2023-02-04T12:17:18;10.30;99.90
13794;DHT22;31160;49.500;7.772;2023-02-04T12:19:44;10.00;99.90
13794;DHT22;31160;49.500;7.772;2023-02-04T12:22:11;9.40;99.90
13794;DHT22;31160;49.500;7.772;2023-02-04T12:24:40;9.30;99.90
13794;DHT22;31160;49.500;7.772;2023-02-04T12:27:07;9.30;99.90
13794;DHT22;31160;49.500;7.772;2023-02-04T12:29:33;9.20;99.90
13794;DHT22;31160;49.500;7.772;2023-02-04T12:32:00;9.10;99.90
13794;DHT22;31160;49.500;7.772;2023-02-04T12:34:27;9.40;99.90
13794;DHT22;31160;49.500;7.772;2023-02-04T12:36:54;9.50;99.90
13794;DHT22;31160;49.500;7.772;2023-02-04T12:39:21;9.70;99.90
13794;DHT22;31160;49.500;7.772;2023-02-04T12:41:47;9.80;99.90
13794;DHT22;31160;49.500;7.772;2023-02-04T12:44:14;9.80;99.90
13794;DHT22;31160;49.500;7.772;2023-02-04T12:46:42;9.90;99.90
13794;DHT22;31160;49.500;7.772;2023-02-04T12:49:09;9.80;99.90
13794;DHT22;31160;49.500;7.772;2023-02-04T12:51:36;10.00;99.90
13794;DHT22;31160;49.500;7.772;2023-02-04T12:54:03;10.10;99.90
13794;DHT22;31160;49.500;7.772;2023-02-04T12:56:29;10.10;99.90
13794;DHT22;31160;49.500;7.772;2023-02-04T12:58:56;10.10;99.90
13794;DHT22;31160;49.500;7.772;2023-02-04T13:01:23;9.90;99.90
13794;DHT22;31160;49.500;7.772;2023-02-04T13:03:49;9.70;99.90
13794;DHT22;31160;49.500;7.772;2023-02-04T13:06:16;9.50;99.90
13794;DHT22;31160;49.500;7.772;2023-02-04T13:08:43;9.20;99.90
13794;DHT22;31160;49.500;7.772;2023-02-04T13:11:09;9.30;99.90
13794;DHT22;31160;49.500;7.772;2023-02-04T13:13:36;9.00;99.90
13794;DHT22;31160;49.500;7.772;2023-02-04T13:16:03;9.00;99.90
13794;DHT22;31160;49.500;7.772;2023-02-04T13:18:30;8.90;99.90
13794;DHT22;31160;49.500;7.772;2023-02-04T13:20:57;8.70;99.90
13794;DHT22;31160;49.500;7.772;2023-02-04T13:23:23;8.70;99.90
13794;DHT22;31160;49.500;7.772;2023-02-04T13:25:50;8.80;99.90
13794;DHT22;31160;49.500;7.772;2023-02-04T13:28:17;8.90;99.90
13794;DHT22;31160;49.500;7.772;2023-02-04T13:30:44;9.20;99.90
13794;DHT22;31160;49.500;7.772;2023-02-04T13:33:10;9.30;99.90
13794;DHT22;31160;49.500;7.772;2023-02-04T13:35:37;9.50;99.90
13794;DHT22;31160;49.500;7.772;2023-02-04T13:38:04;9.50;99.90
13794;DHT22;31160;49.500;7.772;2023-02-04T13:40:30;9.70;99.90
13794;DHT22;31160;49.500;7.772;2023-02-04T13:42:57;9.80;99.90
13794;DHT22;31160;49.500;7.772;2023-02-04T13:45:24;9.80;99.90
13794;DHT22;31160;49.500;7.772;2023-02-04T13:47:51;9.90;99.90
13794;DHT22;31160;49.500;7.772;2023-02-04T13:50:17;10.00;99.90
13794;DHT22;31160;49.500;7.772;2023-02-04T13:52:44;10.10;99.90
13794;DHT22;31160;49.500;7.772;2023-02-04T13:55:11;10.20;99.90
13794;DHT22;31160;49.500;7.772;2023-02-04T13:57:38;10.40;99.90
13794;DHT22;31160;49.500;7.772;2023-02-04T14:00:05;10.40;99.90
13794;DHT22;31160;49.500;7.772;2023-02-04T14:02:38;10.40;99.90
13794;DHT22;31160;49.500;7.772;2023-02-04T14:05:05;10.30;99.90
13794;DHT22;31160;49.500;7.772;2023-02-04T14:07:32;10.40;99.90
13794;DHT22;31160;49.500;7.772;2023-02-04T14:09:59;10.50;99.90
13794;DHT22;31160;49.500;7.772;2023-02-04T14:12:26;10.60;99.90
13794;DHT22;31160;49.500;7.772;2023-02-04T14:14:52;10.60;99.90
13794;DHT22;31160;49.500;7.772;2023-02-04T14:17:19;10.50;99.90
13794;DHT22;31160;49.500;7.772;2023-02-04T14:19:46;10.40;99.90
13794;DHT22;31160;49.500;7.772;2023-02-04T14:22:12;10.20;99.90
13794;DHT22;31160;49.500;7.772;2023-02-04T14:24:39;10.30;99.90
13794;DHT22;31160;49.500;7.772;2023-02-04T14:27:08;10.20;99.90
13794;DHT22;31160;49.500;7.772;2023-02-04T14:29:35;10.30;99.90
13794;DHT22;31160;49.500;7.772;2023-02-04T14:32:02;10.30;99.90
13794;DHT22;31160;49.500;7.772;2023-02-04T14:34:29;10.20;99.90
13794;DHT22;31160;49.500;7.772;2023-02-04T14:36:55;10.20;99.90
13794;DHT22;31160;49.500;7.772;2023-02-04T14:39:22;10.20;99.90
13794;DHT22;31160;49.500;7.772;2023-02-04T14:41:49;10.20;99.90
13794;DHT22;31160;49.500;7.772;2023-02-04T14:44:15;10.30;99.90
13794;DHT22;31160;49.500;7.772;2023-02-04T14:46:47;10.40;99.90
13794;DHT22;31160;49.500;7.772;2023-02-04T14:49:15;10.50;99.90
13794;DHT22;31160;49.500;7.772;2023-02-04T14:51:42;10.50;99.90
13794;DHT22;31160;49.500;7.772;2023-02-04T14:54:09;10.60;99.90
13794;DHT22;31160;49.500;7.772;2023-02-04T14:56:36;10.70;99.90
13794;DHT22;31160;49.500;7.772;2023-02-04T14:59:03;10.70;99.90
13794;DHT22;31160;49.500;7.772;2023-02-04T15:01:30;10.60;99.90
13794;DHT22;31160;49.500;7.772;2023-02-04T15:03:57;10.50;99.90
13794;DHT22;31160;49.500;7.772;2023-02-04T15:06:24;10.30;99.90
13794;DHT22;31160;49.500;7.772;2023-02-04T15:08:51;10.30;99.90
13794;DHT22;31160;49.500;7.772;2023-02-04T15:11:18;10.30;99.90
13794;DHT22;31160;49.500;7.772;2023-02-04T15:13:44;10.30;99.90
13794;DHT22;31160;49.500;7.772;2023-02-04T15:16:11;10.30;99.90
13794;DHT22;31160;49.500;7.772;2023-02-04T15:18:40;10.40;99.90
13794;DHT22;31160;49.500;7.772;2023-02-04T15:21:06;10.30;99.90
13794;DHT22;31160;49.500;7.772;2023-02-04T15:23:33;10.40;99.90
13794;DHT22;31160;49.500;7.772;2023-02-04T15:26:00;10.30;99.90
13794;DHT22;31160;49.500;7.772;2023-02-04T15:28:27;10.40;99.90
13794;DHT22;31160;49.500;7.772;2023-02-04T15:30:55;10.40;99.90
13794;DHT22;31160;49.500;7.772;2023-02-04T15:33:22;10.30;99.90
13794;DHT22;31160;49.500;7.772;2023-02-04T15:35:49;10.30;99.90
13794;DHT22;31160;49.500;7.772;2023-02-04T15:38:16;10.20;99.90
13794;DHT22;31160;49.500;7.772;2023-02-04T15:40:42;10.20;99.90
13794;DHT22;31160;49.500;7.772;2023-02-04T15:43:09;10.10;99.90
13794;DHT22;31160;49.500;7.772;2023-02-04T15:45:36;10.10;99.90
13794;DHT22;31160;49.500;7.772;2023-02-04T15:48:07;10.00;99.90
13794;DHT22;31160;49.500;7.772;2023-02-04T15:50:34;10.00;99.90
13794;DHT22;31160;49.500;7.772;2023-02-04T15:53:01;10.00;99.90
13794;DHT22;31160;49.500;7.772;2023-02-04T15:55:28;9.90;99.90
13794;DHT22;31160;49.500;7.772;2023-02-04T15:57:55;9.80;99.90